sensor_id;sensor_type;location;lat;lon;timestamp;P1;durP1;ratioP1;P2;durP2;ratioP2
39032;SDS011;24794;51.982;5.878;2022-12-15T00:00:46;16.83;;;8.15;;
39032;SDS011;24794;51.982;5.878;2022-12-15T00:02:05;15.23;;;7.97;;
39032;SDS011;24794;51.982;5.878;2022-12-15T00:03:23;16.77;;;8.50;;
39032;SDS011;24794;51.982;5.878;2022-12-15T00:04:42;20.52;;;9.27;;
39032;SDS011;24794;51.982;5.878;2022-12-15T00:06:02;19.35;;;9.18;;
39032;SDS011;24794;51.982;5.878;2022-12-15T00:07:21;17.08;;;8.98;;
39032;SDS011;24794;51.982;5.878;2022-12-15T00:08:39;15.45;;;7.82;;
39032;SDS011;24794;51.982;5.878;2022-12-15T00:09:58;15.25;;;7.75;;
39032;SDS011;24794;51.982;5.878;2022-12-15T00:11:17;14.95;;;7.72;;
39032;SDS011;24794;51.982;5.878;2022-12-15T00:12:37;18.10;;;7.78;;
39032;SDS011;24794;51.982;5.878;2022-12-15T00:13:56;15.15;;;7.15;;
39032;SDS011;24794;51.982;5.878;2022-12-15T00:15:15;13.55;;;6.82;;
39032;SDS011;24794;51.982;5.878;2022-12-15T00:16:34;16.90;;;8.02;;
39032;SDS011;24794;51.982;5.878;2022-12-15T00:17:53;16.60;;;8.18;;
39032;SDS011;24794;51.982;5.878;2022-12-15T00:19:12;18.75;;;9.40;;
39032;SDS011;24794;51.982;5.878;2022-12-15T00:20:31;19.45;;;10.13;;
39032;SDS011;24794;51.982;5.878;2022-12-15T00:21:50;17.67;;;8.85;;
39032;SDS011;24794;51.982;5.878;2022-12-15T00:23:10;19.17;;;8.93;;
39032;SDS011;24794;51.982;5.878;2022-12-15T00:24:31;17.13;;;9.35;;
39032;SDS011;24794;51.982;5.878;2022-12-15T00:25:50;18.02;;;8.45;;
39032;SDS011;24794;51.982;5.878;2022-12-15T00:27:09;17.30;;;7.75;;
39032;SDS011;24794;51.982;5.878;2022-12-15T00:28:28;18.58;;;8.35;;
39032;SDS011;24794;51.982;5.878;2022-12-15T00:29:47;19.13;;;8.02;;
39032;SDS011;24794;51.982;5.878;2022-12-15T00:31:06;17.75;;;8.05;;
39032;SDS011;24794;51.982;5.878;2022-12-15T00:32:26;19.30;;;8.63;;
39032;SDS011;24794;51.982;5.878;2022-12-15T00:33:45;15.48;;;7.70;;
39032;SDS011;24794;51.982;5.878;2022-12-15T00:35:04;14.93;;;7.80;;
39032;SDS011;24794;51.982;5.878;2022-12-15T00:36:23;17.17;;;8.70;;
39032;SDS011;24794;51.982;5.878;2022-12-15T00:37:42;17.52;;;9.25;;
39032;SDS011;24794;51.982;5.878;2022-12-15T00:39:01;15.93;;;8.50;;
39032;SDS011;24794;51.982;5.878;2022-12-15T00:40:01;15.68;;;8.35;;
39032;SDS011;24794;51.982;5.878;2022-12-15T00:41:04;15.60;;;7.90;;
39032;SDS011;24794;51.982;5.878;2022-12-15T00:42:05;13.05;;;6.90;;
39032;SDS011;24794;51.982;5.878;2022-12-15T00:43:06;15.65;;;8.07;;
39032;SDS011;24794;51.982;5.878;2022-12-15T00:44:10;14.45;;;7.30;;
39032;SDS011;24794;51.982;5.878;2022-12-15T00:45:11;16.65;;;7.68;;
39032;SDS011;24794;51.982;5.878;2022-12-15T00:46:12;12.32;;;7.22;;
39032;SDS011;24794;51.982;5.878;2022-12-15T00:47:31;16.23;;;7.28;;
39032;SDS011;24794;51.982;5.878;2022-12-15T00:48:32;13.65;;;7.90;;
39032;SDS011;24794;51.982;5.878;2022-12-15T00:49:33;16.73;;;8.38;;
39032;SDS011;24794;51.982;5.878;2022-12-15T00:50:52;14.68;;;7.30;;
39032;SDS011;24794;51.982;5.878;2022-12-15T00:51:52;11.95;;;7.00;;
39032;SDS011;24794;51.982;5.878;2022-12-15T00:53:12;18.25;;;8.15;;
39032;SDS011;24794;51.982;5.878;2022-12-15T00:54:31;16.45;;;7.60;;
39032;SDS011;24794;51.982;5.878;2022-12-15T00:55:50;16.40;;;8.43;;
39032;SDS011;24794;51.982;5.878;2022-12-15T00:57:09;14.65;;;7.32;;
39032;SDS011;24794;51.982;5.878;2022-12-15T00:58:28;15.32;;;7.88;;
39032;SDS011;24794;51.982;5.878;2022-12-15T00:59:47;19.38;;;8.27;;
39032;SDS011;24794;51.982;5.878;2022-12-15T01:01:06;16.83;;;7.78;;
39032;SDS011;24794;51.982;5.878;2022-12-15T01:02:26;19.35;;;7.45;;
39032;SDS011;24794;51.982;5.878;2022-12-15T01:03:45;13.98;;;7.55;;
39032;SDS011;24794;51.982;5.878;2022-12-15T01:05:04;16.25;;;8.02;;
39032;SDS011;24794;51.982;5.878;2022-12-15T01:06:23;13.65;;;6.90;;
39032;SDS011;24794;51.982;5.878;2022-12-15T01:07:43;16.48;;;7.90;;
39032;SDS011;24794;51.982;5.878;2022-12-15T01:09:02;16.65;;;8.77;;
39032;SDS011;24794;51.982;5.878;2022-12-15T01:10:23;13.85;;;7.30;;
39032;SDS011;24794;51.982;5.878;2022-12-15T01:11:42;18.77;;;8.32;;
39032;SDS011;24794;51.982;5.878;2022-12-15T01:13:03;15.68;;;7.70;;
39032;SDS011;24794;51.982;5.878;2022-12-15T01:14:22;15.50;;;7.93;;
39032;SDS011;24794;51.982;5.878;2022-12-15T01:15:42;12.98;;;7.45;;
39032;SDS011;24794;51.982;5.878;2022-12-15T01:17:01;14.55;;;7.72;;
39032;SDS011;24794;51.982;5.878;2022-12-15T01:18:20;14.10;;;7.22;;
39032;SDS011;24794;51.982;5.878;2022-12-15T01:19:39;15.05;;;7.25;;
39032;SDS011;24794;51.982;5.878;2022-12-15T01:21:02;16.10;;;7.50;;
39032;SDS011;24794;51.982;5.878;2022-12-15T01:22:05;13.80;;;7.00;;
39032;SDS011;24794;51.982;5.878;2022-12-15T01:23:06;14.30;;;7.53;;
39032;SDS011;24794;51.982;5.878;2022-12-15T01:24:06;15.95;;;7.85;;
39032;SDS011;24794;51.982;5.878;2022-12-15T01:25:08;13.77;;;6.65;;
39032;SDS011;24794;51.982;5.878;2022-12-15T01:26:09;13.05;;;6.90;;
39032;SDS011;24794;51.982;5.878;2022-12-15T01:27:09;14.45;;;7.63;;
39032;SDS011;24794;51.982;5.878;2022-12-15T01:28:10;17.88;;;8.20;;
39032;SDS011;24794;51.982;5.878;2022-12-15T01:29:10;18.70;;;8.60;;
39032;SDS011;24794;51.982;5.878;2022-12-15T01:30:12;18.42;;;8.82;;
39032;SDS011;24794;51.982;5.878;2022-12-15T01:31:16;17.85;;;8.65;;
39032;SDS011;24794;51.982;5.878;2022-12-15T01:32:16;16.20;;;7.95;;
39032;SDS011;24794;51.982;5.878;2022-12-15T01:33:17;16.55;;;8.00;;
39032;SDS011;24794;51.982;5.878;2022-12-15T01:34:19;17.02;;;8.18;;
39032;SDS011;24794;51.982;5.878;2022-12-15T01:35:21;16.40;;;8.73;;
39032;SDS011;24794;51.982;5.878;2022-12-15T01:36:22;17.73;;;8.48;;
39032;SDS011;24794;51.982;5.878;2022-12-15T01:37:22;16.13;;;8.10;;
39032;SDS011;24794;51.982;5.878;2022-12-15T01:38:23;18.40;;;8.50;;
39032;SDS011;24794;51.982;5.878;2022-12-15T01:39:25;16.20;;;7.75;;
39032;SDS011;24794;51.982;5.878;2022-12-15T01:40:49;12.95;;;7.05;;
39032;SDS011;24794;51.982;5.878;2022-12-15T01:41:54;15.65;;;7.90;;
39032;SDS011;24794;51.982;5.878;2022-12-15T01:42:55;11.82;;;6.50;;
39032;SDS011;24794;51.982;5.878;2022-12-15T01:44:13;18.38;;;8.13;;
39032;SDS011;24794;51.982;5.878;2022-12-15T01:46:38;16.88;;;7.70;;
39032;SDS011;24794;51.982;5.878;2022-12-15T01:47:38;14.20;;;7.25;;
39032;SDS011;24794;51.982;5.878;2022-12-15T01:49:48;15.90;;;7.72;;
39032;SDS011;24794;51.982;5.878;2022-12-15T01:50:56;15.63;;;7.57;;
39032;SDS011;24794;51.982;5.878;2022-12-15T01:52:18;16.08;;;7.82;;
39032;SDS011;24794;51.982;5.878;2022-12-15T01:53:18;14.90;;;7.65;;
39032;SDS011;24794;51.982;5.878;2022-12-15T01:54:20;15.38;;;7.68;;
39032;SDS011;24794;51.982;5.878;2022-12-15T01:55:27;15.85;;;7.90;;
39032;SDS011;24794;51.982;5.878;2022-12-15T01:56:32;18.00;;;8.73;;
39032;SDS011;24794;51.982;5.878;2022-12-15T01:57:35;18.77;;;8.15;;
39032;SDS011;24794;51.982;5.878;2022-12-15T01:58:37;15.95;;;7.82;;
39032;SDS011;24794;51.982;5.878;2022-12-15T01:59:44;14.70;;;7.47;;
39032;SDS011;24794;51.982;5.878;2022-12-15T02:00:49;17.50;;;7.80;;
39032;SDS011;24794;51.982;5.878;2022-12-15T02:01:50;17.08;;;7.70;;
39032;SDS011;24794;51.982;5.878;2022-12-15T02:02:50;15.13;;;8.02;;
39032;SDS011;24794;51.982;5.878;2022-12-15T02:03:52;15.57;;;7.47;;
39032;SDS011;24794;51.982;5.878;2022-12-15T02:04:54;13.32;;;7.32;;
39032;SDS011;24794;51.982;5.878;2022-12-15T02:05:58;15.90;;;8.07;;
39032;SDS011;24794;51.982;5.878;2022-12-15T02:06:59;16.45;;;7.43;;
39032;SDS011;24794;51.982;5.878;2022-12-15T02:08:00;17.92;;;8.15;;
39032;SDS011;24794;51.982;5.878;2022-12-15T02:09:02;16.23;;;8.27;;
39032;SDS011;24794;51.982;5.878;2022-12-15T02:10:04;15.95;;;7.82;;
39032;SDS011;24794;51.982;5.878;2022-12-15T02:11:14;17.42;;;7.97;;
39032;SDS011;24794;51.982;5.878;2022-12-15T02:12:20;15.57;;;8.15;;
39032;SDS011;24794;51.982;5.878;2022-12-15T02:13:26;15.27;;;7.72;;
39032;SDS011;24794;51.982;5.878;2022-12-15T02:15:47;15.35;;;8.27;;
39032;SDS011;24794;51.982;5.878;2022-12-15T02:18:23;14.45;;;7.22;;
39032;SDS011;24794;51.982;5.878;2022-12-15T02:21:18;11.65;;;6.32;;
39032;SDS011;24794;51.982;5.878;2022-12-15T02:28:03;15.30;;;8.20;;
39032;SDS011;24794;51.982;5.878;2022-12-15T02:31:21;14.30;;;6.75;;
39032;SDS011;24794;51.982;5.878;2022-12-15T02:32:56;14.30;;;7.03;;
39032;SDS011;24794;51.982;5.878;2022-12-15T02:34:13;15.32;;;6.95;;
39032;SDS011;24794;51.982;5.878;2022-12-15T02:35:22;18.35;;;7.80;;
39032;SDS011;24794;51.982;5.878;2022-12-15T02:36:29;13.95;;;7.43;;
39032;SDS011;24794;51.982;5.878;2022-12-15T02:37:37;13.10;;;7.30;;
39032;SDS011;24794;51.982;5.878;2022-12-15T02:38:39;14.40;;;6.70;;
39032;SDS011;24794;51.982;5.878;2022-12-15T02:39:42;13.68;;;7.10;;
39032;SDS011;24794;51.982;5.878;2022-12-15T02:40:43;16.63;;;8.10;;
39032;SDS011;24794;51.982;5.878;2022-12-15T02:41:45;14.52;;;8.07;;
39032;SDS011;24794;51.982;5.878;2022-12-15T02:42:50;16.27;;;8.48;;
39032;SDS011;24794;51.982;5.878;2022-12-15T02:43:54;13.20;;;6.85;;
39032;SDS011;24794;51.982;5.878;2022-12-15T02:44:56;11.30;;;6.35;;
39032;SDS011;24794;51.982;5.878;2022-12-15T02:46:10;12.35;;;6.72;;
39032;SDS011;24794;51.982;5.878;2022-12-15T02:48:48;12.25;;;7.20;;
39032;SDS011;24794;51.982;5.878;2022-12-15T02:52:38;13.30;;;6.43;;
39032;SDS011;24794;51.982;5.878;2022-12-15T02:56:43;16.63;;;7.80;;
39032;SDS011;24794;51.982;5.878;2022-12-15T02:58:12;15.18;;;7.60;;
39032;SDS011;24794;51.982;5.878;2022-12-15T02:59:25;19.17;;;7.93;;
39032;SDS011;24794;51.982;5.878;2022-12-15T03:00:31;20.55;;;8.85;;
39032;SDS011;24794;51.982;5.878;2022-12-15T03:01:38;19.08;;;8.55;;
39032;SDS011;24794;51.982;5.878;2022-12-15T03:02:44;17.13;;;8.23;;
39032;SDS011;24794;51.982;5.878;2022-12-15T03:03:48;16.58;;;8.00;;
39032;SDS011;24794;51.982;5.878;2022-12-15T03:04:50;17.98;;;8.82;;
39032;SDS011;24794;51.982;5.878;2022-12-15T03:05:52;16.15;;;7.72;;
39032;SDS011;24794;51.982;5.878;2022-12-15T03:06:57;18.00;;;8.88;;
39032;SDS011;24794;51.982;5.878;2022-12-15T03:08:02;18.15;;;9.27;;
39032;SDS011;24794;51.982;5.878;2022-12-15T03:09:03;19.58;;;9.35;;
39032;SDS011;24794;51.982;5.878;2022-12-15T03:10:04;15.63;;;8.18;;
39032;SDS011;24794;51.982;5.878;2022-12-15T03:11:06;18.08;;;8.70;;
39032;SDS011;24794;51.982;5.878;2022-12-15T03:12:06;17.13;;;8.30;;
39032;SDS011;24794;51.982;5.878;2022-12-15T03:13:09;16.42;;;8.02;;
39032;SDS011;24794;51.982;5.878;2022-12-15T03:14:09;15.10;;;7.85;;
39032;SDS011;24794;51.982;5.878;2022-12-15T03:15:10;13.57;;;8.02;;
39032;SDS011;24794;51.982;5.878;2022-12-15T03:16:11;17.15;;;8.38;;
39032;SDS011;24794;51.982;5.878;2022-12-15T03:17:11;14.93;;;8.07;;
39032;SDS011;24794;51.982;5.878;2022-12-15T03:18:12;22.05;;;10.45;;
39032;SDS011;24794;51.982;5.878;2022-12-15T03:19:13;16.60;;;9.02;;
39032;SDS011;24794;51.982;5.878;2022-12-15T03:20:13;21.27;;;9.05;;
39032;SDS011;24794;51.982;5.878;2022-12-15T03:21:14;17.20;;;9.25;;
39032;SDS011;24794;51.982;5.878;2022-12-15T03:22:15;17.52;;;9.25;;
39032;SDS011;24794;51.982;5.878;2022-12-15T03:23:15;19.48;;;9.45;;
39032;SDS011;24794;51.982;5.878;2022-12-15T03:24:16;17.50;;;8.18;;
39032;SDS011;24794;51.982;5.878;2022-12-15T03:25:17;17.02;;;8.50;;
39032;SDS011;24794;51.982;5.878;2022-12-15T03:26:17;16.40;;;8.52;;
39032;SDS011;24794;51.982;5.878;2022-12-15T03:27:18;16.33;;;8.48;;
39032;SDS011;24794;51.982;5.878;2022-12-15T03:28:18;17.55;;;8.57;;
39032;SDS011;24794;51.982;5.878;2022-12-15T03:29:19;19.40;;;8.60;;
39032;SDS011;24794;51.982;5.878;2022-12-15T03:30:20;13.82;;;7.85;;
39032;SDS011;24794;51.982;5.878;2022-12-15T03:31:20;14.70;;;7.68;;
39032;SDS011;24794;51.982;5.878;2022-12-15T03:32:21;14.52;;;7.32;;
39032;SDS011;24794;51.982;5.878;2022-12-15T03:33:22;16.35;;;7.95;;
39032;SDS011;24794;51.982;5.878;2022-12-15T03:34:23;12.95;;;6.88;;
39032;SDS011;24794;51.982;5.878;2022-12-15T03:35:23;20.02;;;9.73;;
39032;SDS011;24794;51.982;5.878;2022-12-15T03:36:24;16.35;;;8.68;;
39032;SDS011;24794;51.982;5.878;2022-12-15T03:37:24;17.98;;;9.05;;
39032;SDS011;24794;51.982;5.878;2022-12-15T03:38:25;16.17;;;8.40;;
39032;SDS011;24794;51.982;5.878;2022-12-15T03:39:26;18.13;;;8.70;;
39032;SDS011;24794;51.982;5.878;2022-12-15T03:40:27;19.48;;;8.80;;
39032;SDS011;24794;51.982;5.878;2022-12-15T03:41:27;16.55;;;8.43;;
39032;SDS011;24794;51.982;5.878;2022-12-15T03:42:28;17.77;;;7.88;;
39032;SDS011;24794;51.982;5.878;2022-12-15T03:43:47;15.15;;;7.60;;
39032;SDS011;24794;51.982;5.878;2022-12-15T03:44:48;17.65;;;8.93;;
39032;SDS011;24794;51.982;5.878;2022-12-15T03:45:48;16.23;;;7.72;;
39032;SDS011;24794;51.982;5.878;2022-12-15T03:46:49;14.85;;;7.53;;
39032;SDS011;24794;51.982;5.878;2022-12-15T03:47:50;15.73;;;7.82;;
39032;SDS011;24794;51.982;5.878;2022-12-15T03:48:51;15.73;;;7.75;;
39032;SDS011;24794;51.982;5.878;2022-12-15T03:49:52;15.82;;;7.72;;
39032;SDS011;24794;51.982;5.878;2022-12-15T03:50:53;17.30;;;8.32;;
39032;SDS011;24794;51.982;5.878;2022-12-15T03:51:54;15.23;;;8.35;;
39032;SDS011;24794;51.982;5.878;2022-12-15T03:52:58;16.20;;;8.05;;
39032;SDS011;24794;51.982;5.878;2022-12-15T03:54:00;15.73;;;7.90;;
39032;SDS011;24794;51.982;5.878;2022-12-15T03:55:01;15.98;;;7.97;;
39032;SDS011;24794;51.982;5.878;2022-12-15T03:56:02;14.75;;;8.25;;
39032;SDS011;24794;51.982;5.878;2022-12-15T03:57:03;20.75;;;8.80;;
39032;SDS011;24794;51.982;5.878;2022-12-15T03:58:03;17.50;;;8.65;;
39032;SDS011;24794;51.982;5.878;2022-12-15T03:59:04;16.52;;;8.40;;
39032;SDS011;24794;51.982;5.878;2022-12-15T04:00:05;16.17;;;8.85;;
39032;SDS011;24794;51.982;5.878;2022-12-15T04:01:46;18.55;;;8.65;;
39032;SDS011;24794;51.982;5.878;2022-12-15T04:02:34;15.57;;;7.68;;
39032;SDS011;24794;51.982;5.878;2022-12-15T04:03:35;16.13;;;7.53;;
39032;SDS011;24794;51.982;5.878;2022-12-15T04:04:35;15.65;;;7.88;;
39032;SDS011;24794;51.982;5.878;2022-12-15T04:05:36;13.00;;;6.70;;
39032;SDS011;24794;51.982;5.878;2022-12-15T04:06:37;14.30;;;7.32;;
39032;SDS011;24794;51.982;5.878;2022-12-15T04:07:39;15.45;;;7.00;;
39032;SDS011;24794;51.982;5.878;2022-12-15T04:08:39;13.07;;;6.50;;
39032;SDS011;24794;51.982;5.878;2022-12-15T04:09:40;13.02;;;6.90;;
39032;SDS011;24794;51.982;5.878;2022-12-15T04:10:40;14.32;;;7.07;;
39032;SDS011;24794;51.982;5.878;2022-12-15T04:11:42;13.65;;;6.18;;
39032;SDS011;24794;51.982;5.878;2022-12-15T04:12:43;19.02;;;7.82;;
39032;SDS011;24794;51.982;5.878;2022-12-15T04:13:44;13.70;;;6.93;;
39032;SDS011;24794;51.982;5.878;2022-12-15T04:14:45;14.48;;;7.88;;
39032;SDS011;24794;51.982;5.878;2022-12-15T04:15:45;17.25;;;6.78;;
39032;SDS011;24794;51.982;5.878;2022-12-15T04:16:46;13.45;;;7.38;;
39032;SDS011;24794;51.982;5.878;2022-12-15T04:17:46;16.88;;;7.75;;
39032;SDS011;24794;51.982;5.878;2022-12-15T04:18:47;12.65;;;7.03;;
39032;SDS011;24794;51.982;5.878;2022-12-15T04:20:10;12.90;;;6.47;;
39032;SDS011;24794;51.982;5.878;2022-12-15T04:21:11;12.18;;;6.78;;
39032;SDS011;24794;51.982;5.878;2022-12-15T04:22:11;14.52;;;7.03;;
39032;SDS011;24794;51.982;5.878;2022-12-15T04:23:12;16.73;;;7.28;;
39032;SDS011;24794;51.982;5.878;2022-12-15T04:24:13;11.60;;;6.55;;
39032;SDS011;24794;51.982;5.878;2022-12-15T04:25:32;14.75;;;6.60;;
39032;SDS011;24794;51.982;5.878;2022-12-15T04:26:51;14.23;;;6.47;;
39032;SDS011;24794;51.982;5.878;2022-12-15T04:28:11;13.95;;;6.70;;
39032;SDS011;24794;51.982;5.878;2022-12-15T04:29:30;13.52;;;7.20;;
39032;SDS011;24794;51.982;5.878;2022-12-15T04:30:50;16.67;;;8.15;;
39032;SDS011;24794;51.982;5.878;2022-12-15T04:32:13;17.70;;;8.40;;
39032;SDS011;24794;51.982;5.878;2022-12-15T04:33:32;16.98;;;7.57;;
39032;SDS011;24794;51.982;5.878;2022-12-15T04:34:52;18.60;;;7.65;;
39032;SDS011;24794;51.982;5.878;2022-12-15T04:36:11;15.32;;;7.47;;
39032;SDS011;24794;51.982;5.878;2022-12-15T04:37:31;16.27;;;7.07;;
39032;SDS011;24794;51.982;5.878;2022-12-15T04:38:50;15.02;;;7.25;;
39032;SDS011;24794;51.982;5.878;2022-12-15T04:40:09;14.65;;;7.43;;
39032;SDS011;24794;51.982;5.878;2022-12-15T04:41:28;16.05;;;7.47;;
39032;SDS011;24794;51.982;5.878;2022-12-15T04:42:49;13.27;;;6.63;;
39032;SDS011;24794;51.982;5.878;2022-12-15T04:44:08;16.50;;;7.07;;
39032;SDS011;24794;51.982;5.878;2022-12-15T04:45:29;13.27;;;6.55;;
39032;SDS011;24794;51.982;5.878;2022-12-15T04:46:48;15.98;;;7.10;;
39032;SDS011;24794;51.982;5.878;2022-12-15T04:48:07;13.65;;;6.85;;
39032;SDS011;24794;51.982;5.878;2022-12-15T04:49:26;14.27;;;7.07;;
39032;SDS011;24794;51.982;5.878;2022-12-15T04:50:45;16.23;;;6.93;;
39032;SDS011;24794;51.982;5.878;2022-12-15T04:52:04;14.43;;;6.40;;
39032;SDS011;24794;51.982;5.878;2022-12-15T04:53:23;14.10;;;6.57;;
39032;SDS011;24794;51.982;5.878;2022-12-15T04:54:43;13.57;;;6.72;;
39032;SDS011;24794;51.982;5.878;2022-12-15T04:56:02;14.82;;;7.03;;
39032;SDS011;24794;51.982;5.878;2022-12-15T04:57:21;15.00;;;6.70;;
39032;SDS011;24794;51.982;5.878;2022-12-15T04:58:40;13.98;;;6.55;;
39032;SDS011;24794;51.982;5.878;2022-12-15T04:59:59;15.80;;;8.55;;
39032;SDS011;24794;51.982;5.878;2022-12-15T05:01:18;14.70;;;8.10;;
39032;SDS011;24794;51.982;5.878;2022-12-15T05:02:37;17.48;;;8.13;;
39032;SDS011;24794;51.982;5.878;2022-12-15T05:03:56;14.63;;;7.30;;
39032;SDS011;24794;51.982;5.878;2022-12-15T05:05:15;15.50;;;8.55;;
39032;SDS011;24794;51.982;5.878;2022-12-15T05:06:35;19.00;;;8.75;;
39032;SDS011;24794;51.982;5.878;2022-12-15T05:07:56;17.27;;;8.13;;
39032;SDS011;24794;51.982;5.878;2022-12-15T05:09:16;15.00;;;7.35;;
39032;SDS011;24794;51.982;5.878;2022-12-15T05:10:35;15.73;;;7.80;;
39032;SDS011;24794;51.982;5.878;2022-12-15T05:11:54;15.18;;;7.22;;
39032;SDS011;24794;51.982;5.878;2022-12-15T05:13:13;16.55;;;7.03;;
39032;SDS011;24794;51.982;5.878;2022-12-15T05:14:32;17.60;;;7.38;;
39032;SDS011;24794;51.982;5.878;2022-12-15T05:15:51;13.38;;;6.15;;
39032;SDS011;24794;51.982;5.878;2022-12-15T05:17:10;13.88;;;6.57;;
39032;SDS011;24794;51.982;5.878;2022-12-15T05:18:29;12.80;;;6.47;;
39032;SDS011;24794;51.982;5.878;2022-12-15T05:19:48;16.40;;;7.55;;
39032;SDS011;24794;51.982;5.878;2022-12-15T05:21:07;13.65;;;6.78;;
39032;SDS011;24794;51.982;5.878;2022-12-15T05:22:26;14.63;;;6.88;;
39032;SDS011;24794;51.982;5.878;2022-12-15T05:23:45;11.27;;;6.28;;
39032;SDS011;24794;51.982;5.878;2022-12-15T05:25:04;14.70;;;7.65;;
39032;SDS011;24794;51.982;5.878;2022-12-15T05:26:23;17.58;;;7.93;;
39032;SDS011;24794;51.982;5.878;2022-12-15T05:27:42;15.43;;;8.02;;
39032;SDS011;24794;51.982;5.878;2022-12-15T05:29:01;17.63;;;8.10;;
39032;SDS011;24794;51.982;5.878;2022-12-15T05:30:21;13.77;;;7.90;;
39032;SDS011;24794;51.982;5.878;2022-12-15T05:31:40;16.58;;;8.85;;
39032;SDS011;24794;51.982;5.878;2022-12-15T05:32:54;17.55;;;8.25;;
39032;SDS011;24794;51.982;5.878;2022-12-15T05:33:54;16.38;;;7.80;;
39032;SDS011;24794;51.982;5.878;2022-12-15T05:34:55;15.95;;;8.18;;
39032;SDS011;24794;51.982;5.878;2022-12-15T05:35:56;17.55;;;8.45;;
39032;SDS011;24794;51.982;5.878;2022-12-15T05:36:57;16.13;;;8.18;;
39032;SDS011;24794;51.982;5.878;2022-12-15T05:37:59;13.38;;;6.95;;
39032;SDS011;24794;51.982;5.878;2022-12-15T05:38:59;16.25;;;8.25;;
39032;SDS011;24794;51.982;5.878;2022-12-15T05:40:00;14.25;;;7.45;;
39032;SDS011;24794;51.982;5.878;2022-12-15T05:41:00;15.05;;;6.97;;
39032;SDS011;24794;51.982;5.878;2022-12-15T05:42:01;13.00;;;7.70;;
39032;SDS011;24794;51.982;5.878;2022-12-15T05:43:02;12.55;;;6.57;;
39032;SDS011;24794;51.982;5.878;2022-12-15T05:44:03;15.65;;;7.63;;
39032;SDS011;24794;51.982;5.878;2022-12-15T05:45:04;18.10;;;7.72;;
39032;SDS011;24794;51.982;5.878;2022-12-15T05:46:05;15.95;;;7.90;;
39032;SDS011;24794;51.982;5.878;2022-12-15T05:47:05;17.83;;;8.05;;
39032;SDS011;24794;51.982;5.878;2022-12-15T05:48:08;17.08;;;8.65;;
39032;SDS011;24794;51.982;5.878;2022-12-15T05:49:10;14.48;;;7.82;;
39032;SDS011;24794;51.982;5.878;2022-12-15T05:50:12;13.07;;;6.32;;
39032;SDS011;24794;51.982;5.878;2022-12-15T05:51:13;12.57;;;6.80;;
39032;SDS011;24794;51.982;5.878;2022-12-15T05:52:14;14.38;;;7.50;;
39032;SDS011;24794;51.982;5.878;2022-12-15T05:53:17;16.38;;;8.50;;
39032;SDS011;24794;51.982;5.878;2022-12-15T05:54:18;14.15;;;7.10;;
39032;SDS011;24794;51.982;5.878;2022-12-15T05:55:19;15.85;;;7.05;;
39032;SDS011;24794;51.982;5.878;2022-12-15T05:56:19;13.40;;;6.53;;
39032;SDS011;24794;51.982;5.878;2022-12-15T05:57:20;14.82;;;7.55;;
39032;SDS011;24794;51.982;5.878;2022-12-15T05:58:21;13.63;;;6.35;;
39032;SDS011;24794;51.982;5.878;2022-12-15T05:59:21;14.30;;;7.30;;
39032;SDS011;24794;51.982;5.878;2022-12-15T06:00:22;15.20;;;6.97;;
39032;SDS011;24794;51.982;5.878;2022-12-15T06:01:23;14.88;;;7.22;;
39032;SDS011;24794;51.982;5.878;2022-12-15T06:02:24;16.50;;;7.95;;
39032;SDS011;24794;51.982;5.878;2022-12-15T06:03:27;16.08;;;7.30;;
39032;SDS011;24794;51.982;5.878;2022-12-15T06:04:28;13.02;;;7.25;;
39032;SDS011;24794;51.982;5.878;2022-12-15T06:05:28;11.95;;;6.65;;
39032;SDS011;24794;51.982;5.878;2022-12-15T06:06:29;17.73;;;8.32;;
39032;SDS011;24794;51.982;5.878;2022-12-15T06:07:30;16.83;;;7.70;;
39032;SDS011;24794;51.982;5.878;2022-12-15T06:08:31;15.77;;;7.93;;
39032;SDS011;24794;51.982;5.878;2022-12-15T06:09:34;14.60;;;7.70;;
39032;SDS011;24794;51.982;5.878;2022-12-15T06:10:34;11.95;;;7.10;;
39032;SDS011;24794;51.982;5.878;2022-12-15T06:11:35;17.02;;;7.90;;
39032;SDS011;24794;51.982;5.878;2022-12-15T06:12:36;14.05;;;7.20;;
39032;SDS011;24794;51.982;5.878;2022-12-15T06:13:37;14.50;;;7.30;;
39032;SDS011;24794;51.982;5.878;2022-12-15T06:14:37;17.10;;;7.43;;
39032;SDS011;24794;51.982;5.878;2022-12-15T06:15:38;14.70;;;7.93;;
39032;SDS011;24794;51.982;5.878;2022-12-15T06:16:38;17.08;;;7.55;;
39032;SDS011;24794;51.982;5.878;2022-12-15T06:17:39;15.27;;;8.00;;
39032;SDS011;24794;51.982;5.878;2022-12-15T06:18:41;16.67;;;8.65;;
39032;SDS011;24794;51.982;5.878;2022-12-15T06:19:45;19.35;;;9.07;;
39032;SDS011;24794;51.982;5.878;2022-12-15T06:20:46;17.98;;;8.60;;
39032;SDS011;24794;51.982;5.878;2022-12-15T06:21:47;18.55;;;8.65;;
39032;SDS011;24794;51.982;5.878;2022-12-15T06:22:47;17.08;;;8.65;;
39032;SDS011;24794;51.982;5.878;2022-12-15T06:23:48;15.20;;;8.50;;
39032;SDS011;24794;51.982;5.878;2022-12-15T06:24:49;17.25;;;8.30;;
39032;SDS011;24794;51.982;5.878;2022-12-15T06:25:50;14.45;;;8.65;;
39032;SDS011;24794;51.982;5.878;2022-12-15T06:26:51;14.85;;;7.28;;
39032;SDS011;24794;51.982;5.878;2022-12-15T06:27:51;17.02;;;7.63;;
39032;SDS011;24794;51.982;5.878;2022-12-15T06:28:53;15.27;;;8.52;;
39032;SDS011;24794;51.982;5.878;2022-12-15T06:29:56;16.10;;;7.53;;
39032;SDS011;24794;51.982;5.878;2022-12-15T06:30:59;14.02;;;7.47;;
39032;SDS011;24794;51.982;5.878;2022-12-15T06:32:01;14.27;;;7.47;;
39032;SDS011;24794;51.982;5.878;2022-12-15T06:33:03;17.77;;;9.65;;
39032;SDS011;24794;51.982;5.878;2022-12-15T06:34:05;20.95;;;10.90;;
39032;SDS011;24794;51.982;5.878;2022-12-15T06:35:06;19.77;;;10.60;;
39032;SDS011;24794;51.982;5.878;2022-12-15T06:36:08;22.80;;;11.18;;
39032;SDS011;24794;51.982;5.878;2022-12-15T06:37:13;17.10;;;9.27;;
39032;SDS011;24794;51.982;5.878;2022-12-15T06:38:14;20.02;;;9.80;;
39032;SDS011;24794;51.982;5.878;2022-12-15T06:39:14;18.80;;;10.43;;
39032;SDS011;24794;51.982;5.878;2022-12-15T06:40:15;17.05;;;8.95;;
39032;SDS011;24794;51.982;5.878;2022-12-15T06:41:17;16.65;;;8.98;;
39032;SDS011;24794;51.982;5.878;2022-12-15T06:42:21;18.38;;;9.25;;
39032;SDS011;24794;51.982;5.878;2022-12-15T06:43:22;15.60;;;8.55;;
39032;SDS011;24794;51.982;5.878;2022-12-15T06:44:22;17.77;;;9.43;;
39032;SDS011;24794;51.982;5.878;2022-12-15T06:45:23;20.90;;;10.50;;
39032;SDS011;24794;51.982;5.878;2022-12-15T06:46:24;17.23;;;9.85;;
39032;SDS011;24794;51.982;5.878;2022-12-15T06:47:26;17.75;;;8.95;;
39032;SDS011;24794;51.982;5.878;2022-12-15T06:48:27;18.77;;;9.00;;
39032;SDS011;24794;51.982;5.878;2022-12-15T06:49:28;16.60;;;7.90;;
39032;SDS011;24794;51.982;5.878;2022-12-15T06:50:28;18.52;;;8.98;;
39032;SDS011;24794;51.982;5.878;2022-12-15T06:51:29;18.63;;;9.80;;
39032;SDS011;24794;51.982;5.878;2022-12-15T06:52:30;17.58;;;9.52;;
39032;SDS011;24794;51.982;5.878;2022-12-15T06:53:30;19.95;;;9.63;;
39032;SDS011;24794;51.982;5.878;2022-12-15T06:54:31;16.48;;;9.43;;
39032;SDS011;24794;51.982;5.878;2022-12-15T06:55:32;19.17;;;10.52;;
39032;SDS011;24794;51.982;5.878;2022-12-15T06:56:33;19.90;;;9.35;;
39032;SDS011;24794;51.982;5.878;2022-12-15T06:57:41;16.67;;;8.85;;
39032;SDS011;24794;51.982;5.878;2022-12-15T06:58:41;19.13;;;8.95;;
39032;SDS011;24794;51.982;5.878;2022-12-15T06:59:42;15.90;;;8.63;;
39032;SDS011;24794;51.982;5.878;2022-12-15T07:00:43;16.60;;;9.15;;
39032;SDS011;24794;51.982;5.878;2022-12-15T07:01:45;18.67;;;9.00;;
39032;SDS011;24794;51.982;5.878;2022-12-15T07:02:46;17.17;;;8.43;;